createdAt,value
2019-02-06T00:01:03.550Z,23.00
2019-02-06T00:03:32.439Z,27.90
2019-02-06T00:06:01.076Z,29.70
2019-02-06T00:08:29.618Z,32.33
2019-02-06T00:10:58.250Z,31.90
2019-02-06T00:13:27.169Z,34.23
2019-02-06T00:15:56.026Z,35.00
2019-02-06T00:18:24.817Z,34.47
2019-02-06T00:20:53.643Z,34.43
2019-02-06T00:23:22.389Z,35.73
2019-02-06T00:25:51.782Z,36.43
2019-02-06T00:28:20.526Z,36.07
2019-02-06T00:30:49.655Z,37.50
2019-02-06T00:33:18.343Z,36.37
2019-02-06T00:35:47.142Z,36.43
2019-02-06T00:38:15.706Z,37.83
2019-02-06T00:40:45.872Z,36.80
2019-02-06T00:43:14.549Z,35.90
2019-02-06T00:45:43.668Z,39.40
2019-02-06T00:48:13.603Z,37.47
2019-02-06T00:50:42.486Z,38.73
2019-02-06T00:53:10.955Z,36.20
2019-02-06T00:55:39.460Z,35.97
2019-02-06T00:58:07.953Z,39.50
2019-02-06T01:00:37.023Z,35.43
2019-02-06T01:03:06.766Z,38.17
2019-02-06T01:05:38.383Z,37.57
2019-02-06T01:08:06.196Z,36.60
2019-02-06T01:10:34.951Z,37.20
2019-02-06T01:13:04.016Z,37.70
2019-02-06T01:15:33.461Z,38.60
2019-02-06T01:18:02.027Z,38.17
2019-02-06T01:20:30.599Z,36.73
2019-02-06T01:22:59.912Z,36.63
2019-02-06T01:25:28.693Z,37.80
2019-02-06T01:27:57.247Z,36.80
2019-02-06T01:30:28.081Z,36.67
2019-02-06T01:32:58.252Z,37.10
2019-02-06T01:35:26.934Z,36.80
2019-02-06T01:37:56.352Z,36.07
2019-02-06T01:40:25.124Z,36.37
2019-02-06T01:42:53.700Z,36.37
2019-02-06T01:45:31.403Z,36.57
2019-02-06T01:48:00.564Z,36.13
2019-02-06T01:50:28.958Z,34.93
2019-02-06T01:52:57.558Z,35.93
2019-02-06T01:55:26.047Z,37.00
2019-02-06T01:57:57.206Z,34.40
2019-02-06T02:00:26.119Z,33.87
2019-02-06T02:02:55.200Z,36.67
2019-02-06T02:05:23.939Z,36.80
2019-02-06T02:07:52.629Z,34.90
2019-02-06T02:10:21.356Z,36.17
2019-02-06T02:12:50.567Z,36.80
2019-02-06T02:15:19.134Z,34.87
2019-02-06T02:17:47.814Z,36.00
2019-02-06T02:20:19.128Z,35.00
2019-02-06T02:22:47.730Z,35.40
2019-02-06T02:25:16.709Z,34.53
2019-02-06T02:27:45.495Z,34.60
2019-02-06T02:30:22.822Z,33.70
2019-02-06T02:32:51.817Z,34.30
2019-02-06T02:35:20.568Z,34.87
2019-02-06T02:37:49.355Z,34.00
2019-02-06T02:40:17.900Z,35.20
2019-02-06T02:42:46.421Z,38.57
2019-02-06T02:45:17.962Z,36.70
2019-02-06T02:47:46.955Z,35.20
2019-02-06T02:50:16.000Z,36.53
2019-02-06T02:52:44.423Z,38.27
2019-02-06T02:55:14.046Z,35.53
2019-02-06T02:57:42.712Z,37.63
2019-02-06T03:00:17.684Z,35.50
2019-02-06T03:03:13.242Z,36.97
2019-02-06T03:05:41.818Z,36.57
2019-02-06T03:08:10.287Z,36.20
2019-02-06T03:10:38.940Z,35.50
2019-02-06T03:13:07.807Z,35.63
2019-02-06T03:15:36.515Z,35.50
2019-02-06T03:18:05.598Z,37.00
2019-02-06T03:20:34.129Z,36.60
2019-02-06T03:23:02.707Z,35.63
2019-02-06T03:25:31.239Z,34.70
2019-02-06T03:27:59.986Z,33.80
2019-02-06T03:30:28.560Z,32.53
2019-02-06T03:32:57.057Z,33.80
2019-02-06T03:35:25.750Z,35.13
2019-02-06T03:37:55.756Z,33.17
2019-02-06T03:40:24.338Z,31.97
2019-02-06T03:42:52.895Z,32.47
2019-02-06T03:45:21.452Z,30.93
2019-02-06T03:47:50.092Z,31.83
2019-02-06T03:50:20.727Z,32.60
2019-02-06T03:52:49.343Z,31.07
2019-02-06T03:55:17.989Z,31.10
2019-02-06T03:57:46.591Z,28.00
2019-02-06T04:00:16.112Z,30.40
2019-02-06T04:02:44.729Z,29.30
2019-02-06T04:05:13.851Z,30.63
2019-02-06T04:07:42.432Z,31.73
2019-02-06T04:10:13.350Z,30.23
2019-02-06T04:12:42.028Z,27.53
2019-02-06T04:15:11.474Z,30.47
2019-02-06T04:17:40.020Z,31.97
2019-02-06T04:20:09.910Z,30.27
2019-02-06T04:22:38.369Z,30.20
2019-02-06T04:25:07.827Z,31.43
2019-02-06T04:27:36.425Z,28.27
2019-02-06T04:30:07.371Z,30.57
2019-02-06T04:32:35.899Z,27.97
2019-02-06T04:35:07.106Z,28.03
2019-02-06T04:37:35.726Z,26.13
2019-02-06T04:40:09.075Z,27.33
2019-02-06T04:42:37.605Z,26.37
2019-02-06T04:45:07.079Z,27.57
2019-02-06T04:47:35.666Z,26.57
2019-02-06T04:50:06.032Z,28.40
2019-02-06T04:52:34.858Z,28.13
2019-02-06T04:55:04.085Z,26.37
2019-02-06T04:57:33.773Z,26.33
2019-02-06T05:00:04.093Z,26.20
2019-02-06T05:02:32.561Z,29.00
2019-02-06T05:05:01.125Z,23.80
2019-02-06T05:07:29.756Z,25.47
2019-02-06T05:09:58.325Z,26.13
2019-02-06T05:12:26.931Z,26.70
2019-02-06T05:14:55.920Z,24.20
2019-02-06T05:17:24.718Z,24.67
2019-02-06T05:19:53.444Z,26.73
2019-02-06T05:22:21.915Z,25.83
2019-02-06T05:24:50.622Z,24.20
2019-02-06T05:27:19.099Z,24.97
2019-02-06T05:29:47.911Z,24.47
2019-02-06T05:32:16.653Z,24.63
2019-02-06T05:34:45.352Z,24.87
2019-02-06T05:37:13.939Z,25.33
2019-02-06T05:39:42.766Z,24.53
2019-02-06T05:42:11.559Z,22.23
2019-02-06T05:44:41.971Z,23.60
2019-02-06T05:47:10.633Z,24.70
2019-02-06T05:49:39.626Z,21.73
2019-02-06T05:52:08.465Z,24.80
2019-02-06T05:54:37.042Z,21.87
2019-02-06T05:57:05.633Z,22.40
2019-02-06T05:59:34.642Z,21.63
2019-02-06T06:02:04.662Z,24.47
2019-02-06T06:04:33.243Z,22.57
2019-02-06T06:07:02.054Z,24.37
2019-02-06T06:09:30.613Z,23.67
2019-02-06T06:11:59.217Z,21.60
2019-02-06T06:14:27.853Z,21.80
2019-02-06T06:16:56.276Z,23.13
2019-02-06T06:19:25.488Z,21.37
2019-02-06T06:21:54.591Z,20.47
2019-02-06T06:24:23.334Z,20.70
2019-02-06T06:26:51.858Z,21.57
2019-02-06T06:29:21.015Z,19.47
2019-02-06T06:31:49.722Z,19.20
2019-02-06T06:34:18.185Z,18.00
2019-02-06T06:36:46.981Z,19.73
2019-02-06T06:39:16.123Z,19.00
2019-02-06T06:41:45.080Z,18.73
2019-02-06T06:44:13.665Z,18.43
2019-02-06T06:46:42.114Z,17.53
2019-02-06T06:49:10.570Z,16.73
2019-02-06T06:51:39.240Z,18.07
2019-02-06T06:54:07.946Z,15.83
2019-02-06T06:56:36.821Z,16.80
2019-02-06T06:59:05.486Z,16.97
2019-02-06T07:01:34.797Z,16.47
2019-02-06T07:04:03.551Z,15.87
2019-02-06T07:06:32.037Z,15.47
2019-02-06T07:09:00.932Z,15.00
2019-02-06T07:11:29.786Z,16.30
2019-02-06T07:13:58.706Z,15.37
2019-02-06T07:16:27.293Z,15.40
2019-02-06T07:18:55.862Z,16.07
2019-02-06T07:21:24.358Z,15.07
2019-02-06T07:23:53.480Z,15.67
2019-02-06T07:26:22.253Z,15.07
2019-02-06T07:28:51.095Z,13.93
2019-02-06T07:31:19.838Z,14.37
2019-02-06T07:33:48.541Z,13.53
2019-02-06T07:36:18.307Z,15.17
2019-02-06T07:38:47.244Z,13.63
2019-02-06T07:41:15.993Z,14.23
2019-02-06T07:43:44.737Z,13.97
2019-02-06T07:46:13.443Z,13.93
2019-02-06T07:48:42.125Z,13.63
2019-02-06T07:51:11.176Z,13.73
2019-02-06T07:53:39.689Z,13.43
2019-02-06T07:56:08.383Z,12.77
2019-02-06T07:58:37.528Z,12.37
2019-02-06T08:01:06.225Z,12.80
2019-02-06T08:03:34.900Z,13.30
2019-02-06T08:06:03.735Z,11.90
2019-02-06T08:08:36.189Z,12.63
2019-02-06T08:11:03.571Z,12.33
2019-02-06T08:13:32.914Z,12.33
2019-02-06T08:16:01.887Z,11.93
2019-02-06T08:18:30.500Z,11.30
2019-02-06T08:20:59.215Z,11.33
2019-02-06T08:23:28.031Z,12.70
2019-02-06T08:25:56.695Z,10.27
2019-02-06T08:28:25.302Z,11.00
2019-02-06T08:30:54.595Z,10.57
2019-02-06T08:33:23.881Z,10.43
2019-02-06T08:35:52.572Z,10.80
2019-02-06T08:38:21.126Z,10.20
2019-02-06T08:40:49.851Z,9.83
2019-02-06T08:43:18.591Z,10.13
2019-02-06T08:45:47.324Z,9.07
2019-02-06T08:48:15.888Z,9.10
2019-02-06T08:50:44.565Z,9.17
2019-02-06T08:53:13.050Z,9.00
2019-02-06T08:55:41.726Z,9.23
2019-02-06T08:58:10.305Z,9.07
2019-02-06T09:00:39.821Z,9.00
2019-02-06T09:03:10.672Z,8.50
2019-02-06T09:05:40.367Z,8.83
2019-02-06T09:08:09.666Z,8.67
2019-02-06T09:10:38.777Z,8.13
2019-02-06T09:13:07.333Z,7.97
2019-02-06T09:15:36.419Z,8.20
2019-02-06T09:18:06.104Z,7.43
2019-02-06T09:20:35.268Z,8.37
2019-02-06T09:23:04.891Z,7.63
2019-02-06T09:25:33.659Z,7.57
2019-02-06T09:28:02.231Z,8.43
2019-02-06T09:30:32.551Z,7.50
2019-02-06T09:33:01.453Z,6.83
2019-02-06T09:35:29.935Z,7.50
2019-02-06T09:37:58.635Z,7.77
2019-02-06T09:40:29.202Z,7.87
2019-02-06T09:42:57.768Z,7.90
2019-02-06T09:45:26.556Z,7.33
2019-02-06T09:47:55.576Z,7.03
2019-02-06T09:50:28.201Z,7.47
2019-02-06T09:52:57.131Z,7.67
2019-02-06T09:55:26.706Z,7.07
2019-02-06T09:57:55.998Z,7.03
2019-02-06T10:00:28.714Z,7.47
2019-02-06T10:02:57.287Z,7.47
2019-02-06T10:05:26.584Z,6.87
2019-02-06T10:07:55.258Z,7.27
2019-02-06T10:10:24.399Z,6.90
2019-02-06T10:12:53.415Z,7.43
2019-02-06T10:15:30.769Z,6.13
2019-02-06T10:18:01.037Z,6.53
2019-02-06T10:20:45.735Z,7.20
2019-02-06T10:23:14.448Z,6.87
2019-02-06T10:25:43.022Z,7.53
2019-02-06T10:28:11.681Z,7.30
2019-02-06T10:30:47.485Z,7.50
2019-02-06T10:33:18.660Z,6.87
2019-02-06T10:35:46.623Z,7.00
2019-02-06T10:38:15.350Z,7.33
2019-02-06T10:40:43.924Z,6.90
2019-02-06T10:43:12.607Z,7.10
2019-02-06T10:45:41.800Z,7.20
2019-02-06T10:48:10.364Z,6.67
2019-02-06T10:50:43.493Z,6.70
2019-02-06T10:53:12.170Z,6.60
2019-02-06T10:55:40.743Z,7.00
2019-02-06T10:58:09.634Z,6.63
2019-02-06T11:00:46.069Z,7.37
2019-02-06T11:03:14.832Z,7.30
2019-02-06T11:05:43.704Z,6.87
2019-02-06T11:08:12.449Z,7.73
2019-02-06T11:10:41.638Z,7.20
2019-02-06T11:13:10.166Z,7.47
2019-02-06T11:15:38.777Z,7.23
2019-02-06T11:18:07.356Z,7.93
2019-02-06T11:20:37.056Z,7.30
2019-02-06T11:23:07.009Z,7.50
2019-02-06T11:25:36.662Z,7.87
2019-02-06T11:28:06.475Z,7.40
2019-02-06T11:30:35.815Z,7.87
2019-02-06T11:33:05.750Z,7.23
2019-02-06T11:35:34.721Z,7.30
2019-02-06T11:38:03.795Z,7.27
2019-02-06T11:40:32.606Z,8.67
2019-02-06T11:43:01.164Z,8.20
2019-02-06T11:45:31.659Z,9.10
2019-02-06T11:48:00.725Z,8.60
2019-02-06T11:50:40.271Z,9.63
2019-02-06T11:53:12.667Z,9.13
2019-02-06T11:55:41.145Z,7.67
2019-02-06T11:58:10.287Z,9.43
2019-02-06T12:01:05.209Z,9.27
2019-02-06T12:03:33.786Z,8.63
2019-02-06T12:06:02.523Z,8.60
2019-02-06T12:08:31.467Z,8.77
2019-02-06T12:11:00.555Z,8.30
2019-02-06T12:13:29.036Z,8.57
2019-02-06T12:15:57.543Z,7.67
2019-02-06T12:18:26.108Z,9.90
2019-02-06T12:20:54.737Z,8.80
2019-02-06T12:23:32.006Z,8.10
2019-02-06T12:25:54.111Z,8.20
2019-02-06T12:28:23.201Z,8.80
2019-02-06T12:30:51.742Z,8.07
2019-02-06T12:33:20.433Z,9.10
2019-02-06T12:35:49.014Z,7.83
2019-02-06T12:38:17.643Z,8.20
2019-02-06T12:40:46.404Z,8.97
2019-02-06T12:43:14.872Z,8.77
2019-02-06T12:45:43.821Z,8.50
2019-02-06T12:48:12.396Z,8.97
2019-02-06T12:50:41.027Z,9.27
2019-02-06T12:53:09.545Z,8.97
2019-02-06T12:55:38.688Z,9.33
2019-02-06T12:58:08.091Z,9.27
2019-02-06T13:00:39.488Z,10.67
2019-02-06T13:03:08.552Z,9.97
2019-02-06T13:05:38.143Z,10.37
2019-02-06T13:08:07.320Z,10.53
2019-02-06T13:10:36.120Z,9.80
2019-02-06T13:13:05.441Z,10.27
2019-02-06T13:15:34.445Z,10.23
2019-02-06T13:18:04.304Z,10.00
2019-02-06T13:20:33.404Z,10.00
2019-02-06T13:23:02.502Z,10.53
2019-02-06T13:25:30.986Z,9.50
2019-02-06T13:27:59.541Z,9.87
2019-02-06T13:30:32.252Z,9.50
2019-02-06T13:33:01.160Z,10.03
2019-02-06T13:35:29.737Z,9.33
2019-02-06T13:37:58.294Z,9.70
2019-02-06T13:40:27.811Z,9.47
2019-02-06T13:42:56.908Z,10.10
2019-02-06T13:45:29.612Z,9.33
2019-02-06T13:47:58.215Z,9.93
2019-02-06T13:50:28.188Z,9.87
2019-02-06T13:52:56.765Z,10.53
2019-02-06T13:55:25.891Z,9.57
2019-02-06T13:57:54.730Z,8.97
2019-02-06T14:00:27.334Z,10.33
2019-02-06T14:02:56.034Z,9.47
2019-02-06T14:05:27.998Z,9.60
2019-02-06T14:08:00.111Z,10.47
2019-02-06T14:10:29.258Z,10.43
2019-02-06T14:12:59.087Z,9.37
2019-02-06T14:15:31.826Z,10.23
2019-02-06T14:18:01.051Z,9.90
2019-02-06T14:20:30.274Z,11.53
2019-02-06T14:23:15.594Z,10.67
2019-02-06T14:26:26.379Z,10.20
2019-02-06T14:29:57.786Z,10.17
2019-02-06T14:33:22.496Z,10.17
2019-02-06T14:36:24.296Z,11.53
2019-02-06T14:39:20.222Z,10.57
2019-02-06T14:42:34.324Z,10.83
2019-02-06T14:46:20.529Z,12.27
2019-02-06T14:50:06.677Z,11.47
2019-02-06T14:53:10.238Z,11.87
2019-02-06T14:56:48.550Z,11.73
2019-02-06T15:00:08.370Z,12.47
2019-02-06T15:03:45.609Z,12.00
2019-02-06T15:07:15.872Z,12.67
2019-02-06T15:10:59.378Z,12.83
2019-02-06T15:14:46.451Z,13.53
2019-02-06T15:18:31.247Z,13.13
2019-02-06T15:22:18.898Z,13.30
2019-02-06T15:25:31.208Z,14.07
2019-02-06T15:28:58.229Z,12.83
2019-02-06T15:32:23.320Z,13.63
2019-02-06T15:35:30.265Z,13.53
2019-02-06T15:38:39.952Z,13.53
2019-02-06T15:42:00.457Z,14.03
2019-02-06T15:45:32.753Z,14.03
2019-02-06T15:48:31.689Z,14.47
2019-02-06T15:51:32.640Z,14.37
2019-02-06T15:55:01.404Z,15.93
2019-02-06T15:58:26.858Z,15.80
2019-02-06T16:01:39.706Z,15.00
2019-02-06T16:04:55.341Z,15.33
2019-02-06T16:08:37.017Z,15.50
2019-02-06T16:12:17.876Z,16.00
2019-02-06T16:15:40.366Z,14.73
2019-02-06T16:18:38.967Z,15.13
2019-02-06T16:22:09.167Z,15.13
2019-02-06T16:25:05.552Z,15.80
2019-02-06T16:28:35.047Z,14.97
2019-02-06T16:31:57.396Z,16.23
2019-02-06T16:35:07.036Z,14.43
2019-02-06T16:37:56.960Z,15.17
2019-02-06T16:41:37.247Z,15.00
2019-02-06T16:44:34.214Z,14.80
2019-02-06T16:47:52.311Z,13.93
2019-02-06T16:51:09.191Z,15.33
2019-02-06T16:54:59.690Z,15.37
2019-02-06T16:58:27.537Z,16.50
2019-02-06T17:01:49.014Z,16.47
2019-02-06T17:04:49.383Z,16.67
2019-02-06T17:07:56.969Z,17.13
2019-02-06T17:11:51.266Z,17.83
2019-02-06T17:15:25.922Z,18.00
2019-02-06T17:18:42.467Z,16.90
2019-02-06T17:22:23.500Z,17.30
2019-02-06T17:25:40.032Z,19.23
2019-02-06T17:29:06.144Z,18.80
2019-02-06T17:32:22.915Z,18.07
2019-02-06T17:35:09.262Z,21.97
2019-02-06T17:38:59.160Z,18.53
2019-02-06T17:41:44.448Z,19.97
2019-02-06T17:44:56.131Z,19.47
2019-02-06T17:48:16.230Z,19.77
2019-02-06T17:51:18.807Z,19.67
2019-02-06T17:54:47.004Z,19.93
2019-02-06T17:57:15.676Z,20.23
2019-02-06T17:59:44.272Z,19.93
2019-02-06T18:02:13.156Z,20.70
2019-02-06T18:04:44.918Z,19.13
2019-02-06T18:07:13.579Z,21.87
2019-02-06T18:09:42.496Z,20.63
2019-02-06T18:12:11.500Z,20.03
2019-02-06T18:14:40.157Z,20.53
2019-02-06T18:17:08.728Z,19.83
2019-02-06T18:19:39.428Z,21.43
2019-02-06T18:22:08.838Z,21.07
2019-02-06T18:24:37.609Z,20.27
2019-02-06T18:27:06.727Z,20.77
2019-02-06T18:29:35.565Z,19.47
2019-02-06T18:32:05.020Z,21.67
2019-02-06T18:34:33.803Z,21.47
2019-02-06T18:37:02.580Z,22.03
2019-02-06T18:39:31.207Z,21.53
2019-02-06T18:41:59.872Z,22.17
2019-02-06T18:44:29.237Z,20.33
2019-02-06T18:47:00.263Z,20.37
2019-02-06T18:49:28.901Z,20.63
2019-02-06T18:51:57.571Z,20.33
2019-02-06T18:54:26.393Z,19.93
2019-02-06T18:56:55.082Z,21.87
2019-02-06T18:59:24.026Z,21.07
2019-02-06T19:01:55.308Z,21.33
2019-02-06T19:04:23.497Z,20.90
2019-02-06T19:06:52.132Z,21.77
2019-02-06T19:09:20.962Z,21.47
2019-02-06T19:11:49.569Z,23.20
2019-02-06T19:14:19.192Z,23.97
2019-02-06T19:16:48.311Z,23.63
2019-02-06T19:19:26.323Z,24.17
2019-02-06T19:21:48.278Z,23.03
2019-02-06T19:24:17.830Z,23.03
2019-02-06T19:26:46.654Z,25.10
2019-02-06T19:29:15.105Z,24.83
2019-02-06T19:31:44.731Z,24.30
2019-02-06T19:34:13.352Z,22.43
2019-02-06T19:36:42.040Z,24.77
2019-02-06T19:39:10.708Z,24.23
2019-02-06T19:41:40.035Z,23.73
2019-02-06T19:44:11.252Z,25.67
2019-02-06T19:46:39.515Z,25.63
2019-02-06T19:49:08.642Z,26.40
2019-02-06T19:51:37.470Z,24.40
2019-02-06T19:54:06.199Z,25.27
2019-02-06T19:56:35.723Z,24.43
2019-02-06T19:59:05.187Z,25.13
2019-02-06T20:01:34.252Z,23.97
2019-02-06T20:04:03.045Z,24.40
2019-02-06T20:06:32.585Z,23.70
2019-02-06T20:09:10.496Z,23.43
2019-02-06T20:11:39.135Z,24.70
2019-02-06T20:14:07.841Z,25.23
2019-02-06T20:16:37.502Z,25.07
2019-02-06T20:19:06.582Z,25.43
2019-02-06T20:21:36.077Z,24.90
2019-02-06T20:24:06.273Z,25.13
2019-02-06T20:26:35.381Z,25.63
2019-02-06T20:29:04.298Z,25.60
2019-02-06T20:31:33.581Z,24.77
2019-02-06T20:34:02.188Z,25.67
2019-02-06T20:36:31.185Z,26.83
2019-02-06T20:39:00.396Z,26.57
2019-02-06T20:41:29.369Z,25.37
2019-02-06T20:43:58.297Z,27.60
2019-02-06T20:46:27.402Z,26.43
2019-02-06T20:48:56.075Z,27.00
2019-02-06T20:51:24.735Z,27.33
2019-02-06T20:53:53.468Z,27.23
2019-02-06T20:56:23.290Z,27.40
2019-02-06T20:58:52.185Z,26.27
2019-02-06T21:01:20.741Z,27.30
2019-02-06T21:03:49.569Z,28.10
2019-02-06T21:06:18.173Z,27.20
2019-02-06T21:08:46.801Z,28.63
2019-02-06T21:11:15.814Z,28.23
2019-02-06T21:13:44.767Z,29.10
2019-02-06T21:16:13.352Z,30.47
2019-02-06T21:18:42.082Z,27.77
2019-02-06T21:21:10.659Z,30.00
2019-02-06T21:23:39.165Z,30.80
2019-02-06T21:26:07.693Z,30.83
2019-02-06T21:28:36.766Z,30.03
2019-02-06T21:31:05.671Z,29.63
2019-02-06T21:33:34.238Z,32.60
2019-02-06T21:36:02.858Z,30.13
2019-02-06T21:38:31.922Z,32.40
2019-02-06T21:41:00.402Z,30.97
2019-02-06T21:43:29.983Z,32.03
2019-02-06T21:45:58.819Z,31.53
2019-02-06T21:48:27.298Z,31.20
2019-02-06T21:50:56.425Z,31.03
2019-02-06T21:53:24.990Z,30.93
2019-02-06T21:55:53.558Z,30.87
2019-02-06T21:58:22.182Z,29.20
2019-02-06T22:00:50.749Z,30.50
2019-02-06T22:03:19.377Z,30.87
2019-02-06T22:05:48.016Z,30.30
2019-02-06T22:08:16.496Z,29.93
2019-02-06T22:10:45.081Z,31.83
2019-02-06T22:13:13.812Z,29.80
2019-02-06T22:15:46.596Z,30.10
2019-02-06T22:18:15.590Z,30.53
2019-02-06T22:20:44.266Z,31.07
2019-02-06T22:23:12.735Z,29.47
2019-02-06T22:25:41.365Z,31.07
2019-02-06T22:28:10.027Z,30.83
2019-02-06T22:30:38.698Z,30.53
2019-02-06T22:33:07.499Z,28.93
2019-02-06T22:35:35.972Z,29.13
2019-02-06T22:38:04.828Z,29.47
2019-02-06T22:40:33.658Z,32.03
2019-02-06T22:43:03.272Z,29.73
2019-02-06T22:45:31.796Z,29.80
2019-02-06T22:48:00.748Z,27.77
2019-02-06T22:50:29.414Z,30.70
2019-02-06T22:52:58.356Z,30.13
2019-02-06T22:57:52.606Z,30.97
2019-02-06T23:00:45.143Z,30.07
2019-02-06T23:03:16.834Z,29.77
2019-02-06T23:05:46.657Z,28.50
2019-02-06T23:08:15.168Z,29.60
2019-02-06T23:10:43.845Z,29.20
2019-02-06T23:13:12.670Z,29.33
2019-02-06T23:15:41.694Z,29.87
2019-02-06T23:18:11.185Z,30.57
2019-02-06T23:20:39.831Z,29.87
2019-02-06T23:23:08.550Z,29.17
2019-02-06T23:25:36.994Z,30.37
2019-02-06T23:28:05.819Z,31.67
2019-02-06T23:30:35.288Z,30.23
2019-02-06T23:33:04.031Z,29.00
2019-02-06T23:35:32.699Z,30.13
2019-02-06T23:38:01.701Z,29.87
2019-02-06T23:40:31.220Z,29.20
2019-02-06T23:43:00.135Z,30.73
2019-02-06T23:45:28.855Z,31.83
2019-02-06T23:47:57.420Z,29.23
2019-02-06T23:50:25.890Z,28.67
2019-02-06T23:52:54.454Z,30.70
2019-02-06T23:55:22.884Z,30.00
2019-02-06T23:57:52.056Z,29.47
